Pagrindinis puslapis
METAR-TAF:

METAR-TAF

Oro uostai :

Pilzenas, Čekija

platuma: 49-40-31N, ilguma: 13-16-29E, Aukštis: 362 m

Dabartinis oras

Ataskaita buvo paskelbta 30 minutes, ne 09:00 UTC
Vėjas 2 kt nuo kintamojo kryptimis
Temperatūra 11°C
Drėgmė 62%
Slėgis 1030 hPa
Matomumas 10 km arba daugiau
nėra debesų žemiau 1500 m ir nėra kamuolinių lietaus debesų

METAR: LKLN 200900Z AUTO VRB02KT CAVOK 11/04 Q1030

Laikas: 11:30 (09:30 UTC)


TAF: trūkstamas

Orai ataskaitas ir orų prognozės (METAR, TAF).

turimą stotys yra geltonos ir raudonos taškus žemėlapyje.

Perkelti pele per norėdami pamatyti stoties vardą.

Tada spustelėkite, norėdami matyti oro stebėjimo ir prognozės.

Norėdami pakeisti žemėlapį: spustelėkite ant žalios mygtukų su juodo kryžiaus žemyn,; žalią mygtuką su brūkšneliu, jei norite nutolinti; arba žalių rodyklių gretimoms žemėlapius.


METAR-TAF: